sensor_id;sensor_type;location;lat;lon;timestamp;P1;durP1;ratioP1;P2;durP2;ratioP2
74658;SDS011;63186;51.204;6.536;2023-11-21T00:01:43;10.88;;;4.68;;
74658;SDS011;63186;51.204;6.536;2023-11-21T00:04:09;12.20;;;5.55;;
74658;SDS011;63186;51.204;6.536;2023-11-21T00:06:34;12.43;;;6.68;;
74658;SDS011;63186;51.204;6.536;2023-11-21T00:08:59;12.63;;;6.40;;
74658;SDS011;63186;51.204;6.536;2023-11-21T00:11:25;13.20;;;6.60;;
74658;SDS011;63186;51.204;6.536;2023-11-21T00:13:50;14.20;;;7.35;;
74658;SDS011;63186;51.204;6.536;2023-11-21T00:16:16;14.93;;;7.35;;
74658;SDS011;63186;51.204;6.536;2023-11-21T00:18:41;15.65;;;7.43;;
74658;SDS011;63186;51.204;6.536;2023-11-21T00:21:07;12.35;;;6.35;;
74658;SDS011;63186;51.204;6.536;2023-11-21T00:23:34;15.48;;;7.03;;
74658;SDS011;63186;51.204;6.536;2023-11-21T00:25:59;13.32;;;6.43;;
74658;SDS011;63186;51.204;6.536;2023-11-21T00:28:25;15.00;;;7.93;;
74658;SDS011;63186;51.204;6.536;2023-11-21T00:30:51;12.88;;;6.60;;
74658;SDS011;63186;51.204;6.536;2023-11-21T00:33:16;18.57;;;7.40;;
74658;SDS011;63186;51.204;6.536;2023-11-21T00:35:41;13.20;;;6.97;;
74658;SDS011;63186;51.204;6.536;2023-11-21T00:38:07;14.47;;;7.03;;
74658;SDS011;63186;51.204;6.536;2023-11-21T00:40:33;12.57;;;6.00;;
74658;SDS011;63186;51.204;6.536;2023-11-21T00:42:58;14.53;;;5.53;;
74658;SDS011;63186;51.204;6.536;2023-11-21T00:45:24;11.65;;;6.70;;
74658;SDS011;63186;51.204;6.536;2023-11-21T00:47:49;9.88;;;5.45;;
74658;SDS011;63186;51.204;6.536;2023-11-21T00:50:15;11.97;;;6.17;;
74658;SDS011;63186;51.204;6.536;2023-11-21T00:52:40;13.13;;;6.75;;
74658;SDS011;63186;51.204;6.536;2023-11-21T00:55:06;13.23;;;6.45;;
74658;SDS011;63186;51.204;6.536;2023-11-21T00:57:32;14.90;;;6.13;;
74658;SDS011;63186;51.204;6.536;2023-11-21T00:59:58;11.07;;;6.05;;
74658;SDS011;63186;51.204;6.536;2023-11-21T01:02:23;13.45;;;6.43;;
74658;SDS011;63186;51.204;6.536;2023-11-21T01:04:49;10.52;;;5.85;;
74658;SDS011;63186;51.204;6.536;2023-11-21T01:07:14;11.47;;;5.93;;
74658;SDS011;63186;51.204;6.536;2023-11-21T01:09:39;12.37;;;6.53;;
74658;SDS011;63186;51.204;6.536;2023-11-21T01:12:04;12.13;;;6.53;;
74658;SDS011;63186;51.204;6.536;2023-11-21T01:14:30;10.50;;;5.68;;
74658;SDS011;63186;51.204;6.536;2023-11-21T01:16:55;10.90;;;6.25;;
74658;SDS011;63186;51.204;6.536;2023-11-21T01:19:20;11.30;;;5.53;;
74658;SDS011;63186;51.204;6.536;2023-11-21T01:21:46;12.93;;;5.93;;
74658;SDS011;63186;51.204;6.536;2023-11-21T01:24:12;11.57;;;6.20;;
74658;SDS011;63186;51.204;6.536;2023-11-21T01:26:37;11.68;;;6.93;;
74658;SDS011;63186;51.204;6.536;2023-11-21T01:29:02;13.03;;;6.77;;
74658;SDS011;63186;51.204;6.536;2023-11-21T01:31:28;12.02;;;6.10;;
74658;SDS011;63186;51.204;6.536;2023-11-21T01:33:55;13.98;;;7.07;;
74658;SDS011;63186;51.204;6.536;2023-11-21T01:36:20;13.45;;;7.07;;
74658;SDS011;63186;51.204;6.536;2023-11-21T01:38:46;14.32;;;7.55;;
74658;SDS011;63186;51.204;6.536;2023-11-21T01:41:13;15.60;;;7.88;;
74658;SDS011;63186;51.204;6.536;2023-11-21T01:43:38;13.90;;;7.55;;
74658;SDS011;63186;51.204;6.536;2023-11-21T01:46:03;15.73;;;7.40;;
74658;SDS011;63186;51.204;6.536;2023-11-21T01:48:31;17.00;;;7.82;;
74658;SDS011;63186;51.204;6.536;2023-11-21T01:50:56;15.00;;;7.80;;
74658;SDS011;63186;51.204;6.536;2023-11-21T01:53:23;15.32;;;7.90;;
74658;SDS011;63186;51.204;6.536;2023-11-21T01:55:52;14.10;;;7.60;;
74658;SDS011;63186;51.204;6.536;2023-11-21T01:58:18;16.75;;;7.70;;
74658;SDS011;63186;51.204;6.536;2023-11-21T02:00:45;16.27;;;8.45;;
74658;SDS011;63186;51.204;6.536;2023-11-21T02:03:10;14.17;;;7.57;;
74658;SDS011;63186;51.204;6.536;2023-11-21T02:05:35;17.30;;;8.57;;
74658;SDS011;63186;51.204;6.536;2023-11-21T02:08:01;15.52;;;8.13;;
74658;SDS011;63186;51.204;6.536;2023-11-21T02:10:27;13.93;;;7.10;;
74658;SDS011;63186;51.204;6.536;2023-11-21T02:12:54;13.93;;;8.07;;
74658;SDS011;63186;51.204;6.536;2023-11-21T02:15:21;16.73;;;8.02;;
74658;SDS011;63186;51.204;6.536;2023-11-21T02:17:47;14.50;;;7.55;;
74658;SDS011;63186;51.204;6.536;2023-11-21T02:20:16;15.95;;;8.73;;
74658;SDS011;63186;51.204;6.536;2023-11-21T02:22:42;15.27;;;8.63;;
74658;SDS011;63186;51.204;6.536;2023-11-21T02:25:22;15.20;;;8.57;;
74658;SDS011;63186;51.204;6.536;2023-11-21T02:27:48;14.73;;;7.75;;
74658;SDS011;63186;51.204;6.536;2023-11-21T02:30:14;16.17;;;8.70;;
74658;SDS011;63186;51.204;6.536;2023-11-21T02:32:41;14.15;;;8.55;;
74658;SDS011;63186;51.204;6.536;2023-11-21T02:35:08;14.77;;;7.68;;
74658;SDS011;63186;51.204;6.536;2023-11-21T02:37:33;14.80;;;7.72;;
74658;SDS011;63186;51.204;6.536;2023-11-21T02:40:00;16.38;;;7.93;;
74658;SDS011;63186;51.204;6.536;2023-11-21T02:42:25;15.10;;;9.18;;
74658;SDS011;63186;51.204;6.536;2023-11-21T02:44:51;17.37;;;9.40;;
74658;SDS011;63186;51.204;6.536;2023-11-21T02:47:16;15.07;;;8.57;;
74658;SDS011;63186;51.204;6.536;2023-11-21T02:49:41;16.30;;;9.17;;
74658;SDS011;63186;51.204;6.536;2023-11-21T02:52:06;19.20;;;8.57;;
74658;SDS011;63186;51.204;6.536;2023-11-21T02:54:32;17.97;;;9.37;;
74658;SDS011;63186;51.204;6.536;2023-11-21T02:57:01;16.17;;;8.82;;
74658;SDS011;63186;51.204;6.536;2023-11-21T02:59:27;16.75;;;8.75;;
74658;SDS011;63186;51.204;6.536;2023-11-21T03:01:52;16.80;;;8.67;;
74658;SDS011;63186;51.204;6.536;2023-11-21T03:04:17;14.85;;;8.55;;
74658;SDS011;63186;51.204;6.536;2023-11-21T03:06:44;20.40;;;8.15;;
74658;SDS011;63186;51.204;6.536;2023-11-21T03:09:10;18.25;;;9.95;;
74658;SDS011;63186;51.204;6.536;2023-11-21T03:11:38;14.20;;;8.48;;
74658;SDS011;63186;51.204;6.536;2023-11-21T03:14:03;16.08;;;8.75;;
74658;SDS011;63186;51.204;6.536;2023-11-21T03:16:30;13.82;;;8.15;;
74658;SDS011;63186;51.204;6.536;2023-11-21T03:18:56;17.02;;;8.45;;
74658;SDS011;63186;51.204;6.536;2023-11-21T03:21:21;17.03;;;8.27;;
74658;SDS011;63186;51.204;6.536;2023-11-21T03:23:46;15.50;;;8.10;;
74658;SDS011;63186;51.204;6.536;2023-11-21T03:26:12;18.43;;;8.97;;
74658;SDS011;63186;51.204;6.536;2023-11-21T03:28:38;17.35;;;8.18;;
74658;SDS011;63186;51.204;6.536;2023-11-21T03:31:03;14.85;;;6.97;;
74658;SDS011;63186;51.204;6.536;2023-11-21T03:33:28;15.43;;;8.50;;
74658;SDS011;63186;51.204;6.536;2023-11-21T03:35:54;16.20;;;8.70;;
74658;SDS011;63186;51.204;6.536;2023-11-21T03:38:19;14.50;;;7.60;;
74658;SDS011;63186;51.204;6.536;2023-11-21T03:40:45;13.82;;;7.50;;
74658;SDS011;63186;51.204;6.536;2023-11-21T03:43:10;15.82;;;7.85;;
74658;SDS011;63186;51.204;6.536;2023-11-21T03:45:35;16.30;;;7.57;;
74658;SDS011;63186;51.204;6.536;2023-11-21T03:48:01;16.33;;;7.57;;
74658;SDS011;63186;51.204;6.536;2023-11-21T03:50:27;17.30;;;7.82;;
74658;SDS011;63186;51.204;6.536;2023-11-21T03:52:56;14.88;;;6.95;;
74658;SDS011;63186;51.204;6.536;2023-11-21T03:55:21;16.63;;;7.60;;
74658;SDS011;63186;51.204;6.536;2023-11-21T03:57:48;18.35;;;7.90;;
74658;SDS011;63186;51.204;6.536;2023-11-21T04:00:13;17.20;;;7.25;;
74658;SDS011;63186;51.204;6.536;2023-11-21T04:02:39;15.18;;;7.45;;
74658;SDS011;63186;51.204;6.536;2023-11-21T04:05:05;15.43;;;8.45;;
74658;SDS011;63186;51.204;6.536;2023-11-21T04:07:32;15.52;;;7.75;;
74658;SDS011;63186;51.204;6.536;2023-11-21T04:09:57;18.10;;;8.23;;
74658;SDS011;63186;51.204;6.536;2023-11-21T04:12:22;15.33;;;8.10;;
74658;SDS011;63186;51.204;6.536;2023-11-21T04:14:48;15.57;;;7.10;;
74658;SDS011;63186;51.204;6.536;2023-11-21T04:17:13;17.33;;;8.20;;
74658;SDS011;63186;51.204;6.536;2023-11-21T04:19:38;16.43;;;7.73;;
74658;SDS011;63186;51.204;6.536;2023-11-21T04:22:04;15.30;;;7.73;;
74658;SDS011;63186;51.204;6.536;2023-11-21T04:24:29;20.33;;;8.35;;
74658;SDS011;63186;51.204;6.536;2023-11-21T04:26:54;15.43;;;7.15;;
74658;SDS011;63186;51.204;6.536;2023-11-21T04:29:20;18.97;;;7.80;;
74658;SDS011;63186;51.204;6.536;2023-11-21T04:31:45;15.13;;;7.30;;
74658;SDS011;63186;51.204;6.536;2023-11-21T04:34:11;15.10;;;7.18;;
74658;SDS011;63186;51.204;6.536;2023-11-21T04:36:36;14.75;;;7.80;;
74658;SDS011;63186;51.204;6.536;2023-11-21T04:39:02;12.48;;;6.03;;
74658;SDS011;63186;51.204;6.536;2023-11-21T04:41:27;13.75;;;6.82;;
74658;SDS011;63186;51.204;6.536;2023-11-21T04:43:52;18.30;;;7.90;;
74658;SDS011;63186;51.204;6.536;2023-11-21T04:46:18;13.90;;;6.03;;
74658;SDS011;63186;51.204;6.536;2023-11-21T04:48:43;15.98;;;7.35;;
74658;SDS011;63186;51.204;6.536;2023-11-21T04:51:09;15.07;;;7.25;;
74658;SDS011;63186;51.204;6.536;2023-11-21T04:53:34;18.67;;;6.28;;
74658;SDS011;63186;51.204;6.536;2023-11-21T04:56:00;18.80;;;7.60;;
74658;SDS011;63186;51.204;6.536;2023-11-21T04:58:25;18.70;;;8.07;;
74658;SDS011;63186;51.204;6.536;2023-11-21T05:00:50;14.35;;;6.72;;
74658;SDS011;63186;51.204;6.536;2023-11-21T05:03:16;13.77;;;6.57;;
74658;SDS011;63186;51.204;6.536;2023-11-21T05:05:41;16.90;;;6.53;;
74658;SDS011;63186;51.204;6.536;2023-11-21T05:08:06;15.18;;;6.97;;
74658;SDS011;63186;51.204;6.536;2023-11-21T05:10:33;18.42;;;8.02;;
74658;SDS011;63186;51.204;6.536;2023-11-21T05:12:58;18.37;;;8.13;;
74658;SDS011;63186;51.204;6.536;2023-11-21T05:15:23;16.60;;;7.27;;
74658;SDS011;63186;51.204;6.536;2023-11-21T05:17:48;20.10;;;7.35;;
74658;SDS011;63186;51.204;6.536;2023-11-21T05:20:17;17.48;;;7.40;;
74658;SDS011;63186;51.204;6.536;2023-11-21T05:25:11;21.02;;;7.93;;
74658;SDS011;63186;51.204;6.536;2023-11-21T05:27:36;17.15;;;8.65;;
74658;SDS011;63186;51.204;6.536;2023-11-21T05:30:02;19.98;;;8.30;;
74658;SDS011;63186;51.204;6.536;2023-11-21T05:32:31;20.20;;;8.85;;
74658;SDS011;63186;51.204;6.536;2023-11-21T05:34:57;17.98;;;6.75;;
74658;SDS011;63186;51.204;6.536;2023-11-21T05:37:23;19.48;;;8.73;;
74658;SDS011;63186;51.204;6.536;2023-11-21T05:39:49;20.07;;;7.97;;
74658;SDS011;63186;51.204;6.536;2023-11-21T05:42:14;17.35;;;7.82;;
74658;SDS011;63186;51.204;6.536;2023-11-21T05:44:41;19.57;;;7.80;;
74658;SDS011;63186;51.204;6.536;2023-11-21T05:47:07;23.20;;;9.65;;
74658;SDS011;63186;51.204;6.536;2023-11-21T05:49:33;23.50;;;8.90;;
74658;SDS011;63186;51.204;6.536;2023-11-21T05:51:59;20.63;;;9.48;;
74658;SDS011;63186;51.204;6.536;2023-11-21T05:54:24;22.30;;;9.68;;
74658;SDS011;63186;51.204;6.536;2023-11-21T05:56:50;20.38;;;7.43;;
74658;SDS011;63186;51.204;6.536;2023-11-21T05:59:16;21.98;;;9.65;;
74658;SDS011;63186;51.204;6.536;2023-11-21T06:01:41;21.03;;;7.97;;
74658;SDS011;63186;51.204;6.536;2023-11-21T06:04:06;20.90;;;7.67;;
74658;SDS011;63186;51.204;6.536;2023-11-21T06:06:34;18.30;;;7.97;;
74658;SDS011;63186;51.204;6.536;2023-11-21T06:09:00;20.85;;;8.80;;
74658;SDS011;63186;51.204;6.536;2023-11-21T06:11:25;22.53;;;8.90;;
74658;SDS011;63186;51.204;6.536;2023-11-21T06:13:50;18.83;;;8.63;;
74658;SDS011;63186;51.204;6.536;2023-11-21T06:16:15;24.30;;;8.50;;
74658;SDS011;63186;51.204;6.536;2023-11-21T06:18:42;22.02;;;7.95;;
74658;SDS011;63186;51.204;6.536;2023-11-21T06:21:11;18.85;;;8.13;;
74658;SDS011;63186;51.204;6.536;2023-11-21T06:23:36;20.73;;;7.30;;
74658;SDS011;63186;51.204;6.536;2023-11-21T06:26:01;18.70;;;7.27;;
74658;SDS011;63186;51.204;6.536;2023-11-21T06:28:27;23.05;;;9.43;;
74658;SDS011;63186;51.204;6.536;2023-11-21T06:30:52;18.58;;;8.32;;
74658;SDS011;63186;51.204;6.536;2023-11-21T06:33:18;20.13;;;9.52;;
74658;SDS011;63186;51.204;6.536;2023-11-21T06:35:44;20.00;;;9.45;;
74658;SDS011;63186;51.204;6.536;2023-11-21T06:38:09;21.15;;;11.13;;
74658;SDS011;63186;51.204;6.536;2023-11-21T06:40:35;18.38;;;7.90;;
74658;SDS011;63186;51.204;6.536;2023-11-21T06:43:00;21.40;;;7.97;;
74658;SDS011;63186;51.204;6.536;2023-11-21T06:45:26;20.40;;;8.60;;
74658;SDS011;63186;51.204;6.536;2023-11-21T06:47:51;19.15;;;8.77;;
74658;SDS011;63186;51.204;6.536;2023-11-21T06:50:16;21.25;;;10.43;;
74658;SDS011;63186;51.204;6.536;2023-11-21T06:52:42;22.52;;;9.73;;
74658;SDS011;63186;51.204;6.536;2023-11-21T06:55:08;20.77;;;9.27;;
74658;SDS011;63186;51.204;6.536;2023-11-21T06:57:33;24.05;;;9.80;;
74658;SDS011;63186;51.204;6.536;2023-11-21T06:59:58;23.73;;;10.43;;
74658;SDS011;63186;51.204;6.536;2023-11-21T07:02:24;18.75;;;10.02;;
74658;SDS011;63186;51.204;6.536;2023-11-21T07:04:50;26.20;;;10.00;;
74658;SDS011;63186;51.204;6.536;2023-11-21T07:07:15;19.90;;;9.27;;
74658;SDS011;63186;51.204;6.536;2023-11-21T07:09:40;24.33;;;10.43;;
74658;SDS011;63186;51.204;6.536;2023-11-21T07:12:06;22.00;;;9.23;;
74658;SDS011;63186;51.204;6.536;2023-11-21T07:14:33;20.75;;;9.38;;
74658;SDS011;63186;51.204;6.536;2023-11-21T07:16:59;22.73;;;10.65;;
74658;SDS011;63186;51.204;6.536;2023-11-21T07:19:24;26.15;;;10.30;;
74658;SDS011;63186;51.204;6.536;2023-11-21T07:21:49;22.80;;;10.13;;
74658;SDS011;63186;51.204;6.536;2023-11-21T07:24:17;26.55;;;11.45;;
74658;SDS011;63186;51.204;6.536;2023-11-21T07:26:43;23.70;;;11.77;;
74658;SDS011;63186;51.204;6.536;2023-11-21T07:29:08;20.00;;;9.13;;
74658;SDS011;63186;51.204;6.536;2023-11-21T07:31:33;25.47;;;11.43;;
74658;SDS011;63186;51.204;6.536;2023-11-21T07:34:01;26.52;;;11.10;;
74658;SDS011;63186;51.204;6.536;2023-11-21T07:36:27;33.08;;;10.95;;
74658;SDS011;63186;51.204;6.536;2023-11-21T07:38:52;22.02;;;9.73;;
74658;SDS011;63186;51.204;6.536;2023-11-21T07:41:18;25.10;;;10.77;;
74658;SDS011;63186;51.204;6.536;2023-11-21T07:43:46;26.10;;;11.40;;
74658;SDS011;63186;51.204;6.536;2023-11-21T07:48:38;24.90;;;9.05;;
74658;SDS011;63186;51.204;6.536;2023-11-21T07:51:04;26.38;;;11.13;;
74658;SDS011;63186;51.204;6.536;2023-11-21T07:53:29;27.20;;;11.23;;
74658;SDS011;63186;51.204;6.536;2023-11-21T07:55:55;24.52;;;9.50;;
74658;SDS011;63186;51.204;6.536;2023-11-21T07:58:20;29.98;;;11.68;;
74658;SDS011;63186;51.204;6.536;2023-11-21T08:00:46;29.37;;;11.53;;
74658;SDS011;63186;51.204;6.536;2023-11-21T08:03:13;30.05;;;10.90;;
74658;SDS011;63186;51.204;6.536;2023-11-21T08:05:38;29.35;;;12.55;;
74658;SDS011;63186;51.204;6.536;2023-11-21T08:08:04;33.47;;;13.93;;
74658;SDS011;63186;51.204;6.536;2023-11-21T08:10:29;31.08;;;12.15;;
74658;SDS011;63186;51.204;6.536;2023-11-21T08:12:55;27.95;;;13.70;;
74658;SDS011;63186;51.204;6.536;2023-11-21T08:15:20;33.08;;;11.80;;
74658;SDS011;63186;51.204;6.536;2023-11-21T08:17:46;30.60;;;14.50;;
74658;SDS011;63186;51.204;6.536;2023-11-21T08:20:12;34.90;;;14.80;;
74658;SDS011;63186;51.204;6.536;2023-11-21T08:22:37;40.90;;;13.93;;
74658;SDS011;63186;51.204;6.536;2023-11-21T08:25:02;37.50;;;14.50;;
74658;SDS011;63186;51.204;6.536;2023-11-21T08:27:31;38.17;;;13.50;;
74658;SDS011;63186;51.204;6.536;2023-11-21T08:29:56;40.13;;;14.40;;
74658;SDS011;63186;51.204;6.536;2023-11-21T08:32:22;36.38;;;13.38;;
74658;SDS011;63186;51.204;6.536;2023-11-21T08:34:47;35.50;;;13.87;;
74658;SDS011;63186;51.204;6.536;2023-11-21T08:37:15;35.47;;;14.68;;
74658;SDS011;63186;51.204;6.536;2023-11-21T08:39:41;38.50;;;13.43;;
74658;SDS011;63186;51.204;6.536;2023-11-21T08:42:06;31.90;;;13.43;;
74658;SDS011;63186;51.204;6.536;2023-11-21T08:44:33;38.90;;;13.98;;
74658;SDS011;63186;51.204;6.536;2023-11-21T08:46:58;32.33;;;13.43;;
74658;SDS011;63186;51.204;6.536;2023-11-21T08:49:23;37.00;;;12.30;;
74658;SDS011;63186;51.204;6.536;2023-11-21T08:51:51;34.60;;;12.52;;
74658;SDS011;63186;51.204;6.536;2023-11-21T08:54:16;39.42;;;14.88;;
74658;SDS011;63186;51.204;6.536;2023-11-21T08:56:43;42.25;;;13.50;;
74658;SDS011;63186;51.204;6.536;2023-11-21T08:59:08;35.88;;;12.48;;
74658;SDS011;63186;51.204;6.536;2023-11-21T09:01:34;30.43;;;12.40;;
74658;SDS011;63186;51.204;6.536;2023-11-21T09:03:59;37.58;;;13.20;;
74658;SDS011;63186;51.204;6.536;2023-11-21T09:06:24;31.07;;;12.80;;
74658;SDS011;63186;51.204;6.536;2023-11-21T09:08:49;34.30;;;13.20;;
74658;SDS011;63186;51.204;6.536;2023-11-21T09:11:15;34.58;;;12.27;;
74658;SDS011;63186;51.204;6.536;2023-11-21T09:13:40;31.20;;;12.23;;
74658;SDS011;63186;51.204;6.536;2023-11-21T09:16:06;31.60;;;13.03;;
74658;SDS011;63186;51.204;6.536;2023-11-21T09:18:32;35.10;;;12.90;;
74658;SDS011;63186;51.204;6.536;2023-11-21T09:20:57;25.20;;;11.10;;
74658;SDS011;63186;51.204;6.536;2023-11-21T09:23:22;21.92;;;9.35;;
74658;SDS011;63186;51.204;6.536;2023-11-21T09:25:48;23.67;;;10.40;;
74658;SDS011;63186;51.204;6.536;2023-11-21T09:28:15;25.90;;;10.35;;
74658;SDS011;63186;51.204;6.536;2023-11-21T09:30:42;28.55;;;10.70;;
74658;SDS011;63186;51.204;6.536;2023-11-21T09:33:08;25.10;;;10.07;;
74658;SDS011;63186;51.204;6.536;2023-11-21T09:35:35;30.15;;;10.20;;
74658;SDS011;63186;51.204;6.536;2023-11-21T09:38:03;25.05;;;9.32;;
74658;SDS011;63186;51.204;6.536;2023-11-21T09:40:30;23.17;;;10.18;;
74658;SDS011;63186;51.204;6.536;2023-11-21T09:42:56;23.80;;;10.10;;
74658;SDS011;63186;51.204;6.536;2023-11-21T09:45:26;25.05;;;9.30;;
74658;SDS011;63186;51.204;6.536;2023-11-21T09:47:53;24.00;;;8.63;;
74658;SDS011;63186;51.204;6.536;2023-11-21T09:50:20;20.55;;;8.75;;
74658;SDS011;63186;51.204;6.536;2023-11-21T09:55:35;26.77;;;9.15;;
74658;SDS011;63186;51.204;6.536;2023-11-21T09:58:03;23.65;;;11.23;;
74658;SDS011;63186;51.204;6.536;2023-11-21T10:00:32;18.98;;;8.20;;
74658;SDS011;63186;51.204;6.536;2023-11-21T10:02:58;24.48;;;9.45;;
74658;SDS011;63186;51.204;6.536;2023-11-21T10:05:23;24.23;;;10.18;;
74658;SDS011;63186;51.204;6.536;2023-11-21T10:07:52;23.83;;;10.30;;
74658;SDS011;63186;51.204;6.536;2023-11-21T10:10:22;21.65;;;10.02;;
74658;SDS011;63186;51.204;6.536;2023-11-21T10:12:50;16.38;;;9.02;;
74658;SDS011;63186;51.204;6.536;2023-11-21T10:15:23;23.40;;;8.95;;
74658;SDS011;63186;51.204;6.536;2023-11-21T10:17:52;24.25;;;10.13;;
74658;SDS011;63186;51.204;6.536;2023-11-21T10:20:19;21.50;;;9.52;;
74658;SDS011;63186;51.204;6.536;2023-11-21T10:22:45;21.90;;;10.65;;
74658;SDS011;63186;51.204;6.536;2023-11-21T10:25:11;21.52;;;9.60;;
74658;SDS011;63186;51.204;6.536;2023-11-21T10:30:05;20.52;;;9.13;;
74658;SDS011;63186;51.204;6.536;2023-11-21T10:32:31;23.23;;;8.98;;
74658;SDS011;63186;51.204;6.536;2023-11-21T10:34:58;24.30;;;9.38;;
74658;SDS011;63186;51.204;6.536;2023-11-21T10:37:25;22.95;;;9.00;;
74658;SDS011;63186;51.204;6.536;2023-11-21T10:39:56;22.73;;;9.90;;
74658;SDS011;63186;51.204;6.536;2023-11-21T10:42:22;20.55;;;9.75;;
74658;SDS011;63186;51.204;6.536;2023-11-21T10:44:49;21.50;;;9.73;;
74658;SDS011;63186;51.204;6.536;2023-11-21T10:47:14;22.87;;;10.00;;
74658;SDS011;63186;51.204;6.536;2023-11-21T10:49:40;24.98;;;9.60;;
74658;SDS011;63186;51.204;6.536;2023-11-21T10:52:05;23.50;;;9.87;;
74658;SDS011;63186;51.204;6.536;2023-11-21T10:54:31;20.07;;;8.83;;
74658;SDS011;63186;51.204;6.536;2023-11-21T10:56:57;24.27;;;9.80;;
74658;SDS011;63186;51.204;6.536;2023-11-21T10:59:24;19.92;;;10.20;;
74658;SDS011;63186;51.204;6.536;2023-11-21T11:01:53;23.02;;;9.48;;
74658;SDS011;63186;51.204;6.536;2023-11-21T11:04:19;23.33;;;9.57;;
74658;SDS011;63186;51.204;6.536;2023-11-21T11:06:49;20.77;;;9.40;;
74658;SDS011;63186;51.204;6.536;2023-11-21T11:09:16;18.90;;;8.20;;
74658;SDS011;63186;51.204;6.536;2023-11-21T11:11:42;22.63;;;9.32;;
74658;SDS011;63186;51.204;6.536;2023-11-21T11:14:10;23.10;;;10.38;;
74658;SDS011;63186;51.204;6.536;2023-11-21T11:16:37;22.77;;;9.65;;
74658;SDS011;63186;51.204;6.536;2023-11-21T11:19:06;24.67;;;10.10;;
74658;SDS011;63186;51.204;6.536;2023-11-21T11:21:38;20.65;;;9.70;;
74658;SDS011;63186;51.204;6.536;2023-11-21T11:24:13;18.73;;;9.55;;
74658;SDS011;63186;51.204;6.536;2023-11-21T11:30:28;19.83;;;9.10;;
74658;SDS011;63186;51.204;6.536;2023-11-21T11:32:39;20.80;;;9.45;;
74658;SDS011;63186;51.204;6.536;2023-11-21T11:35:25;20.40;;;9.57;;
74658;SDS011;63186;51.204;6.536;2023-11-21T11:37:57;20.83;;;8.40;;
74658;SDS011;63186;51.204;6.536;2023-11-21T11:40:24;24.27;;;10.25;;
74658;SDS011;63186;51.204;6.536;2023-11-21T11:43:03;19.92;;;8.15;;
74658;SDS011;63186;51.204;6.536;2023-11-21T11:45:33;19.50;;;9.23;;
74658;SDS011;63186;51.204;6.536;2023-11-21T11:48:00;20.73;;;9.32;;
74658;SDS011;63186;51.204;6.536;2023-11-21T11:50:27;21.67;;;9.65;;
74658;SDS011;63186;51.204;6.536;2023-11-21T11:52:53;22.00;;;9.25;;
74658;SDS011;63186;51.204;6.536;2023-11-21T11:55:23;25.55;;;11.35;;
74658;SDS011;63186;51.204;6.536;2023-11-21T11:57:52;19.30;;;9.38;;
74658;SDS011;63186;51.204;6.536;2023-11-21T12:02:52;21.73;;;9.10;;
74658;SDS011;63186;51.204;6.536;2023-11-21T12:05:19;22.70;;;9.63;;
74658;SDS011;63186;51.204;6.536;2023-11-21T12:07:53;20.50;;;9.20;;
74658;SDS011;63186;51.204;6.536;2023-11-21T12:10:26;20.60;;;9.35;;
74658;SDS011;63186;51.204;6.536;2023-11-21T12:12:54;24.98;;;10.85;;
74658;SDS011;63186;51.204;6.536;2023-11-21T12:15:22;22.25;;;9.70;;
74658;SDS011;63186;51.204;6.536;2023-11-21T12:17:49;20.10;;;10.25;;
74658;SDS011;63186;51.204;6.536;2023-11-21T12:20:15;26.17;;;10.70;;
74658;SDS011;63186;51.204;6.536;2023-11-21T12:22:44;22.83;;;8.77;;
74658;SDS011;63186;51.204;6.536;2023-11-21T12:27:49;22.15;;;9.15;;
74658;SDS011;63186;51.204;6.536;2023-11-21T12:30:16;19.20;;;9.23;;
74658;SDS011;63186;51.204;6.536;2023-11-21T12:32:50;21.27;;;8.40;;
74658;SDS011;63186;51.204;6.536;2023-11-21T12:35:17;22.15;;;9.45;;
74658;SDS011;63186;51.204;6.536;2023-11-21T12:37:47;21.65;;;9.52;;
74658;SDS011;63186;51.204;6.536;2023-11-21T12:40:13;22.65;;;8.18;;
74658;SDS011;63186;51.204;6.536;2023-11-21T12:42:43;18.48;;;8.13;;
74658;SDS011;63186;51.204;6.536;2023-11-21T12:47:51;19.50;;;9.27;;
74658;SDS011;63186;51.204;6.536;2023-11-21T12:50:25;20.25;;;8.68;;
74658;SDS011;63186;51.204;6.536;2023-11-21T12:53:11;18.77;;;9.55;;
74658;SDS011;63186;51.204;6.536;2023-11-21T12:55:37;18.83;;;7.43;;
74658;SDS011;63186;51.204;6.536;2023-11-21T12:58:04;17.90;;;7.50;;
74658;SDS011;63186;51.204;6.536;2023-11-21T13:00:35;17.42;;;8.32;;
74658;SDS011;63186;51.204;6.536;2023-11-21T13:03:03;18.73;;;7.72;;
74658;SDS011;63186;51.204;6.536;2023-11-21T13:05:30;17.33;;;6.75;;
74658;SDS011;63186;51.204;6.536;2023-11-21T13:07:59;16.42;;;7.20;;
74658;SDS011;63186;51.204;6.536;2023-11-21T13:10:28;16.80;;;7.68;;
74658;SDS011;63186;51.204;6.536;2023-11-21T13:13:00;16.50;;;6.82;;
74658;SDS011;63186;51.204;6.536;2023-11-21T13:15:30;15.23;;;6.93;;
74658;SDS011;63186;51.204;6.536;2023-11-21T13:17:56;15.80;;;7.30;;
74658;SDS011;63186;51.204;6.536;2023-11-21T13:20:22;16.77;;;7.03;;
74658;SDS011;63186;51.204;6.536;2023-11-21T13:22:54;18.83;;;8.30;;
74658;SDS011;63186;51.204;6.536;2023-11-21T13:25:24;17.15;;;7.85;;
74658;SDS011;63186;51.204;6.536;2023-11-21T13:27:52;20.23;;;8.13;;
74658;SDS011;63186;51.204;6.536;2023-11-21T13:30:18;18.48;;;8.13;;
74658;SDS011;63186;51.204;6.536;2023-11-21T13:32:51;20.27;;;7.97;;
74658;SDS011;63186;51.204;6.536;2023-11-21T13:35:18;19.98;;;8.63;;
74658;SDS011;63186;51.204;6.536;2023-11-21T13:37:51;20.17;;;8.20;;
74658;SDS011;63186;51.204;6.536;2023-11-21T13:40:20;19.00;;;8.70;;
74658;SDS011;63186;51.204;6.536;2023-11-21T13:42:50;17.63;;;8.88;;
74658;SDS011;63186;51.204;6.536;2023-11-21T13:45:18;19.10;;;8.40;;
74658;SDS011;63186;51.204;6.536;2023-11-21T13:47:45;26.08;;;9.55;;
74658;SDS011;63186;51.204;6.536;2023-11-21T13:50:10;17.57;;;9.87;;
74658;SDS011;63186;51.204;6.536;2023-11-21T13:52:42;20.67;;;9.23;;
74658;SDS011;63186;51.204;6.536;2023-11-21T13:55:10;24.08;;;8.82;;
74658;SDS011;63186;51.204;6.536;2023-11-21T13:57:40;21.90;;;9.82;;
74658;SDS011;63186;51.204;6.536;2023-11-21T14:00:09;23.13;;;8.93;;
74658;SDS011;63186;51.204;6.536;2023-11-21T14:02:55;20.45;;;8.88;;
74658;SDS011;63186;51.204;6.536;2023-11-21T14:05:25;21.42;;;9.07;;
74658;SDS011;63186;51.204;6.536;2023-11-21T14:07:54;21.92;;;9.35;;
74658;SDS011;63186;51.204;6.536;2023-11-21T14:10:21;20.35;;;9.00;;
74658;SDS011;63186;51.204;6.536;2023-11-21T14:12:49;21.42;;;9.15;;
74658;SDS011;63186;51.204;6.536;2023-11-21T14:15:14;22.63;;;8.40;;
74658;SDS011;63186;51.204;6.536;2023-11-21T14:17:43;16.60;;;8.40;;
74658;SDS011;63186;51.204;6.536;2023-11-21T14:20:09;21.15;;;8.50;;
74658;SDS011;63186;51.204;6.536;2023-11-21T14:22:41;23.20;;;9.48;;
74658;SDS011;63186;51.204;6.536;2023-11-21T14:25:06;18.33;;;8.15;;
74658;SDS011;63186;51.204;6.536;2023-11-21T14:27:32;18.63;;;8.32;;
74658;SDS011;63186;51.204;6.536;2023-11-21T14:29:58;21.13;;;9.90;;
74658;SDS011;63186;51.204;6.536;2023-11-21T14:32:24;20.70;;;8.45;;
74658;SDS011;63186;51.204;6.536;2023-11-21T14:34:51;17.17;;;8.75;;
74658;SDS011;63186;51.204;6.536;2023-11-21T14:37:16;20.27;;;9.68;;
74658;SDS011;63186;51.204;6.536;2023-11-21T14:39:41;23.55;;;10.23;;
74658;SDS011;63186;51.204;6.536;2023-11-21T14:42:11;19.15;;;9.38;;
74658;SDS011;63186;51.204;6.536;2023-11-21T14:44:36;21.13;;;9.80;;
74658;SDS011;63186;51.204;6.536;2023-11-21T14:47:06;25.38;;;9.73;;
74658;SDS011;63186;51.204;6.536;2023-11-21T14:49:39;22.15;;;8.70;;